Time;durP1;ratioP1;P1;durP2;ratioP2;P2;SDS_P1;SDS_P2;PMS_P1;PMS_P2;Temp;Humidity;BMP_temperature;BMP_pressure;BME280_temperature;BME280_humidity;BME280_pressure;Samples;Min_cycle;Max_cycle;Signal;HPM_P1;HPM_P2
2022/07/30 00:00:09;;;;;;;;;;;;;;;;;;1050334;28;2727;-54
2022/07/30 00:00:59;;;;;;;;;;;;;;;;;;1047615;28;4200;-50
2022/07/30 00:01:29;;;;;;;;;;;;;;;;;;1045763;28;3846;-56
2022/07/30 00:02:00;;;;;;;;;;;;;;;;;;1047582;28;3912;-57
2022/07/30 00:02:30;;;;;;;;;;;;;;;;;;1048124;28;4426;-58
2022/07/30 00:03:00;;;;;;;;;;;;;;;;;;1052607;28;2445;-52
2022/07/30 00:03:31;;;;;;;;;;;;;;;;;;1050796;27;3896;-56
2022/07/30 00:04:02;;;;;;;;;;;;;;;;;;1051293;28;3922;-57
2022/07/30 00:04:32;;;;;;;;;;;;;;;;;;1046683;28;4119;-55
2022/07/30 00:05:03;;;;;;;;;;;;;;;;;;1046265;28;3907;-60
2022/07/30 00:05:33;;;;;;;;;;;;;;;;;;1043162;28;4059;-54
2022/07/30 00:06:04;;;;;;;;;;;;;;;;;;1043974;28;1608;-57
2022/07/30 00:06:36;;;;;;;;;;;;;;;;;;1047319;28;3943;-59
2022/07/30 00:07:07;;;;;;;;;;;;;;;;;;1046146;27;3851;-56
2022/07/30 00:07:37;;;;;;;;;;;;;;;;;;1047887;28;4270;-54
2022/07/30 00:08:07;;;;;;;;;;;;;;;;;;1046807;28;3210;-56
2022/07/30 00:08:38;;;;;;;;;;;;;;;;;;1047254;28;3836;-57
2022/07/30 00:09:08;;;;;;;;;;;;;;;;;;1047727;28;3448;-54
2022/07/30 00:09:38;;;;;;;;;;;;;;;;;;1051631;28;3921;-58
2022/07/30 00:10:09;;;;;;;;;;;;;;;;;;1051398;28;3750;-54
2022/07/30 00:10:39;;;;;;;;;;;;;;;;;;1050163;28;3888;-55
2022/07/30 00:11:10;;;;;;;;;;;;;;;;;;1052269;28;1514;-58
2022/07/30 00:11:41;;;;;;;;;;;;;;;;;;1042076;28;3834;-57
2022/07/30 00:12:11;;;;;;;;;;;;;;;;;;1044115;28;2946;-56
2022/07/30 00:12:41;;;;;;;;;;;;;;;;;;1043373;28;4253;-55
2022/07/30 00:13:12;;;;;;;;;;;;;;;;;;1044475;28;3322;-55
2022/07/30 00:13:42;;;;;;;;;;;;;;;;;;1050304;28;3862;-58
2022/07/30 00:14:12;;;;;;;;;;;;;;;;;;1051647;28;1798;-53
2022/07/30 00:14:42;;;;;;;;;;;;;;;;;;1046960;28;4011;-56
2022/07/30 00:15:13;;;;;;;;;;;;;;;;;;1046536;28;2447;-55
2022/07/30 00:15:43;;;;;;;;;;;;;;;;;;1045596;28;4017;-58
2022/07/30 00:16:13;;;;;;;;;;;;;;;;;;1046912;28;2592;-52
2022/07/30 00:16:44;;;;;;;;;;;;;;;;;;1047440;28;4031;-56
2022/07/30 00:17:14;;;;;;;;;;;;;;;;;;1046283;28;2475;-58
2022/07/30 00:17:44;;;;;;;;;;;;;;;;;;1043942;28;3976;-56
2022/07/30 00:18:15;;;;;;;;;;;;;;;;;;1044137;28;2891;-58
2022/07/30 00:18:45;;;;;;;;;;;;;;;;;;1044059;28;4141;-52
2022/07/30 00:19:15;;;;;;;;;;;;;;;;;;1043887;28;2391;-54
2022/07/30 00:19:52;;;;;;;;;;;;;;;;;;1047081;28;4102;-55
2022/07/30 00:20:22;;;;;;;;;;;;;;;;;;1046733;28;4380;-57
2022/07/30 00:20:53;;;;;;;;;;;;;;;;;;1051736;28;1383;-58
2022/07/30 00:21:23;;;;;;;;;;;;;;;;;;1050673;28;4534;-60
2022/07/30 00:21:53;;;;;;;;;;;;;;;;;;1052859;28;2978;-56
2022/07/30 00:22:23;;;;;;;;;;;;;;;;;;1050052;28;4108;-57
2022/07/30 00:22:54;;;;;;;;;;;;;;;;;;1051689;28;2918;-56
2022/07/30 00:23:24;;;;;;;;;;;;;;;;;;1045831;28;4041;-58
2022/07/30 00:23:54;;;;;;;;;;;;;;;;;;1047342;28;2263;-58
2022/07/30 00:24:25;;;;;;;;;;;;;;;;;;1039079;28;3958;-55
2022/07/30 00:24:55;;;;;;;;;;;;;;;;;;1042560;28;2829;-56
2022/07/30 00:25:25;;;;;;;;;;;;;;;;;;1046379;28;4425;-57
2022/07/30 00:25:55;;;;;;;;;;;;;;;;;;1046730;28;1724;-58
2022/07/30 00:26:26;;;;;;;;;;;;;;;;;;1049938;28;3849;-57
2022/07/30 00:26:56;;;;;;;;;;;;;;;;;;1051103;28;1904;-52
2022/07/30 00:27:40;;;;;;;;;;;;;;;;;;1046870;28;3848;-55
2022/07/30 00:28:17;;;;;;;;;;;;;;;;;;1048211;28;2394;-55
2022/07/30 00:28:47;;;;;;;;;;;;;;;;;;1043847;28;3871;-60
2022/07/30 00:29:18;;;;;;;;;;;;;;;;;;1048188;28;3560;-56
2022/07/30 00:29:48;;;;;;;;;;;;;;;;;;1048119;28;4211;-52
2022/07/30 00:30:18;;;;;;;;;;;;;;;;;;1050277;28;3140;-55
2022/07/30 00:30:49;;;;;;;;;;;;;;;;;;1046707;28;4038;-55
2022/07/30 00:31:19;;;;;;;;;;;;;;;;;;1047567;28;2519;-56
2022/07/30 00:31:49;;;;;;;;;;;;;;;;;;1045474;28;3964;-57
2022/07/30 00:32:19;;;;;;;;;;;;;;;;;;1047433;28;3898;-57
2022/07/30 00:32:50;;;;;;;;;;;;;;;;;;1045800;28;3990;-57
2022/07/30 00:33:20;;;;;;;;;;;;;;;;;;1046081;28;3951;-57
2022/07/30 00:33:51;;;;;;;;;;;;;;;;;;1049521;28;3800;-57
2022/07/30 00:34:21;;;;;;;;;;;;;;;;;;1051339;27;3395;-56
2022/07/30 00:34:51;;;;;;;;;;;;;;;;;;1051952;28;3905;-55
2022/07/30 00:35:22;;;;;;;;;;;;;;;;;;1049210;28;3667;-56
2022/07/30 00:35:52;;;;;;;;;;;;;;;;;;1047602;28;4643;-54
2022/07/30 00:36:22;;;;;;;;;;;;;;;;;;1046310;28;4020;-52
2022/07/30 00:36:53;;;;;;;;;;;;;;;;;;1047742;28;1380;-55
2022/07/30 00:37:23;;;;;;;;;;;;;;;;;;1044376;28;3974;-58
2022/07/30 00:37:53;;;;;;;;;;;;;;;;;;1046706;28;3944;-55
2022/07/30 00:38:23;;;;;;;;;;;;;;;;;;1042680;28;4255;-57
2022/07/30 00:38:54;;;;;;;;;;;;;;;;;;1041485;28;2655;-58
2022/07/30 00:39:24;;;;;;;;;;;;;;;;;;1045747;28;4201;-58
2022/07/30 00:39:54;;;;;;;;;;;;;;;;;;1039324;28;1762;-60
2022/07/30 00:40:25;;;;;;;;;;;;;;;;;;1043084;28;4319;-57
2022/07/30 00:40:57;;;;;;;;;;;;;;;;;;1039405;28;4308;-58
2022/07/30 00:41:27;;;;;;;;;;;;;;;;;;1038372;28;3893;-55
2022/07/30 00:41:59;;;;;;;;;;;;;;;;;;1042521;28;2717;-59
2022/07/30 00:42:36;;;;;;;;;;;;;;;;;;1042231;28;4260;-54
2022/07/30 00:43:06;;;;;;;;;;;;;;;;;;1046712;28;3841;-53
2022/07/30 00:43:36;;;;;;;;;;;;;;;;;;1046186;28;3816;-55
2022/07/30 00:44:07;;;;;;;;;;;;;;;;;;1046048;28;3772;-57
2022/07/30 00:44:37;;;;;;;;;;;;;;;;;;1047500;28;3859;-56
2022/07/30 00:45:08;;;;;;;;;;;;;;;;;;1047024;28;3893;-54
2022/07/30 00:45:39;;;;;;;;;;;;;;;;;;1048105;28;3820;-56
2022/07/30 00:46:09;;;;;;;;;;;;;;;;;;1049064;28;1683;-56
2022/07/30 00:46:39;;;;;;;;;;;;;;;;;;1045970;28;4064;-58
2022/07/30 00:47:10;;;;;;;;;;;;;;;;;;1047321;28;2091;-54
2022/07/30 00:47:40;;;;;;;;;;;;;;;;;;1046821;28;3793;-58
2022/07/30 00:48:11;;;;;;;;;;;;;;;;;;1047696;28;3047;-57
2022/07/30 00:48:41;;;;;;;;;;;;;;;;;;1046648;28;4272;-55
2022/07/30 00:49:12;;;;;;;;;;;;;;;;;;1047827;28;3105;-54
2022/07/30 00:49:42;;;;;;;;;;;;;;;;;;1044882;28;4035;-55
2022/07/30 00:50:13;;;;;;;;;;;;;;;;;;1047721;28;3432;-59
2022/07/30 00:50:43;;;;;;;;;;;;;;;;;;1045134;28;3933;-57
2022/07/30 00:51:14;;;;;;;;;;;;;;;;;;1047276;28;4136;-58
2022/07/30 00:51:44;;;;;;;;;;;;;;;;;;1047252;28;4001;-57
2022/07/30 00:52:14;;;;;;;;;;;;;;;;;;1044814;28;3189;-57
2022/07/30 00:52:45;;;;;;;;;;;;;;;;;;1047220;28;3941;-56
2022/07/30 00:53:15;;;;;;;;;;;;;;;;;;1048282;28;3620;-58
2022/07/30 00:53:45;;;;;;;;;;;;;;;;;;1046644;28;3844;-57
2022/07/30 00:54:16;;;;;;;;;;;;;;;;;;1042731;28;3932;-57
2022/07/30 00:54:46;;;;;;;;;;;;;;;;;;1041047;28;3881;-58
2022/07/30 00:55:16;;;;;;;;;;;;;;;;;;1043433;28;2044;-58
2022/07/30 00:55:46;;;;;;;;;;;;;;;;;;1041887;28;3879;-53
2022/07/30 00:56:17;;;;;;;;;;;;;;;;;;1047796;28;3465;-55
2022/07/30 00:56:47;;;;;;;;;;;;;;;;;;1044884;28;3888;-54
2022/07/30 00:57:18;;;;;;;;;;;;;;;;;;1047962;28;3171;-53
2022/07/30 00:57:48;;;;;;;;;;;;;;;;;;1046253;28;4054;-54
2022/07/30 00:58:18;;;;;;;;;;;;;;;;;;1048760;28;2019;-56
2022/07/30 00:58:48;;;;;;;;;;;;;;;;;;1045576;28;3857;-57
2022/07/30 00:59:19;;;;;;;;;;;;;;;;;;1047605;28;3790;-52
2022/07/30 00:59:49;;;;;;;;;;;;;;;;;;1045949;28;4287;-54
2022/07/30 01:00:26;;;;;;;;;;;;;;;;;;1045998;28;4050;-57
2022/07/30 01:00:57;;;;;;;;;;;;;;;;;;1046391;28;2170;-59
2022/07/30 01:01:30;;;;;;;;;;;;;;;;;;1049217;28;3860;-54
2022/07/30 01:02:00;;;;;;;;;;;;;;;;;;1047349;28;3059;-56
2022/07/30 01:02:30;;;;;;;;;;;;;;;;;;1048253;28;3891;-57
2022/07/30 01:03:01;;;;;;;;;;;;;;;;;;1048811;28;1657;-57
2022/07/30 01:03:31;;;;;;;;;;;;;;;;;;1046617;28;4495;-54
2022/07/30 01:04:01;;;;;;;;;;;;;;;;;;1045194;28;4161;-57
2022/07/30 01:04:31;;;;;;;;;;;;;;;;;;1046295;28;4163;-52
2022/07/30 01:05:02;;;;;;;;;;;;;;;;;;1043766;28;1343;-55
2022/07/30 01:05:32;;;;;;;;;;;;;;;;;;1042066;28;3825;-59
2022/07/30 01:06:03;;;;;;;;;;;;;;;;;;1046415;28;3570;-53
2022/07/30 01:06:33;;;;;;;;;;;;;;;;;;1044468;28;3880;-57
2022/07/30 01:07:03;;;;;;;;;;;;;;;;;;1046728;28;2815;-56
2022/07/30 01:07:34;;;;;;;;;;;;;;;;;;1045967;28;3886;-58
2022/07/30 01:08:04;;;;;;;;;;;;;;;;;;1047350;28;2232;-56
2022/07/30 01:08:34;;;;;;;;;;;;;;;;;;1045327;28;4519;-56
2022/07/30 01:09:05;;;;;;;;;;;;;;;;;;1044590;28;3982;-55
2022/07/30 01:09:36;;;;;;;;;;;;;;;;;;1044421;28;4434;-57
2022/07/30 01:10:07;;;;;;;;;;;;;;;;;;1046083;28;2288;-55
2022/07/30 01:10:37;;;;;;;;;;;;;;;;;;1046885;28;3829;-58
2022/07/30 01:11:08;;;;;;;;;;;;;;;;;;1045131;28;2865;-58
2022/07/30 01:11:40;;;;;;;;;;;;;;;;;;1045632;28;3972;-59
2022/07/30 01:12:19;;;;;;;;;;;;;;;;;;1047788;28;2260;-59
2022/07/30 01:12:51;;;;;;;;;;;;;;;;;;1046769;28;4051;-53
2022/07/30 01:13:21;;;;;;;;;;;;;;;;;;1051028;28;3292;-58
2022/07/30 01:13:52;;;;;;;;;;;;;;;;;;1050172;28;4029;-57
2022/07/30 01:14:22;;;;;;;;;;;;;;;;;;1050037;28;2674;-58
2022/07/30 01:14:54;;;;;;;;;;;;;;;;;;1050515;28;3770;-60
2022/07/30 01:15:25;;;;;;;;;;;;;;;;;;1044752;28;4953;-56
2022/07/30 01:15:56;;;;;;;;;;;;;;;;;;1046619;28;2906;-56
2022/07/30 01:16:27;;;;;;;;;;;;;;;;;;1046372;28;3833;-57
2022/07/30 01:16:57;;;;;;;;;;;;;;;;;;1046163;28;3093;-58
2022/07/30 01:17:27;;;;;;;;;;;;;;;;;;1046136;28;3857;-54
2022/07/30 01:17:59;;;;;;;;;;;;;;;;;;1046639;28;1859;-55
2022/07/30 01:19:47;;;;;;;;;;;;;;;;;;1046338;28;3911;-56
2022/07/30 01:20:13;;;;;;;;;;;;;;;;;;1048284;28;3808;-59
2022/07/30 01:21:03;;;;;;;;;;;;;;;;;;1046651;28;3970;-57
2022/07/30 01:21:36;;;;;;;;;;;;;;;;;;1046073;28;3991;-56
2022/07/30 01:22:24;;;;;;;;;;;;;;;;;;1046404;28;2800;-54
2022/07/30 01:23:07;;;;;;;;;;;;;;;;;;1046957;28;3835;-56
2022/07/30 01:23:40;;;;;;;;;;;;;;;;;;1047154;28;3795;-55
2022/07/30 01:24:19;;;;;;;;;;;;;;;;;;1047418;28;3874;-53
2022/07/30 01:24:54;;;;;;;;;;;;;;;;;;1048022;28;3918;-57
2022/07/30 01:25:25;;;;;;;;;;;;;;;;;;1047773;28;3909;-57
2022/07/30 01:26:06;;;;;;;;;;;;;;;;;;1044054;28;3027;-57
2022/07/30 01:26:36;;;;;;;;;;;;;;;;;;1045256;28;3800;-58
2022/07/30 01:27:07;;;;;;;;;;;;;;;;;;1046187;28;3804;-54
2022/07/30 01:28:02;;;;;;;;;;;;;;;;;;1045583;28;4201;-58
2022/07/30 01:28:45;;;;;;;;;;;;;;;;;;1045767;28;4071;-56
2022/07/30 01:29:16;;;;;;;;;;;;;;;;;;1044259;28;3883;-57
2022/07/30 01:29:47;;;;;;;;;;;;;;;;;;1047852;28;3897;-57
2022/07/30 01:30:20;;;;;;;;;;;;;;;;;;1045483;28;2890;-56
2022/07/30 01:30:51;;;;;;;;;;;;;;;;;;1045713;28;3925;-52
2022/07/30 01:31:23;;;;;;;;;;;;;;;;;;1044848;28;3853;-52
2022/07/30 01:31:58;;;;;;;;;;;;;;;;;;1045236;28;3983;-55
2022/07/30 01:32:29;;;;;;;;;;;;;;;;;;1045576;28;4279;-56
2022/07/30 01:33:00;;;;;;;;;;;;;;;;;;1047642;28;1409;-54
2022/07/30 01:33:31;;;;;;;;;;;;;;;;;;1043637;28;4247;-56
2022/07/30 01:34:01;;;;;;;;;;;;;;;;;;1042751;28;3317;-56
2022/07/30 01:34:33;;;;;;;;;;;;;;;;;;1046774;28;4065;-53
2022/07/30 01:35:05;;;;;;;;;;;;;;;;;;1043974;28;2497;-55
2022/07/30 01:35:36;;;;;;;;;;;;;;;;;;1045461;28;4191;-54
2022/07/30 01:36:08;;;;;;;;;;;;;;;;;;1047931;28;2316;-58
2022/07/30 01:36:39;;;;;;;;;;;;;;;;;;1044468;28;3977;-58
2022/07/30 01:37:10;;;;;;;;;;;;;;;;;;1047592;28;3095;-54
2022/07/30 01:37:41;;;;;;;;;;;;;;;;;;1045919;28;3878;-55
2022/07/30 01:38:12;;;;;;;;;;;;;;;;;;1046885;28;2695;-55
2022/07/30 01:38:43;;;;;;;;;;;;;;;;;;1044832;28;3876;-57
2022/07/30 01:39:16;;;;;;;;;;;;;;;;;;1051676;28;2126;-55
2022/07/30 01:39:48;;;;;;;;;;;;;;;;;;1049000;28;4397;-51
2022/07/30 01:40:18;;;;;;;;;;;;;;;;;;1050970;28;3748;-52
2022/07/30 01:40:50;;;;;;;;;;;;;;;;;;1044406;28;4003;-57
2022/07/30 01:41:21;;;;;;;;;;;;;;;;;;1047459;28;2679;-56
2022/07/30 01:41:53;;;;;;;;;;;;;;;;;;1045612;28;4302;-54
2022/07/30 01:42:25;;;;;;;;;;;;;;;;;;1045741;28;4045;-57
2022/07/30 01:42:57;;;;;;;;;;;;;;;;;;1047994;28;4011;-58
2022/07/30 01:43:29;;;;;;;;;;;;;;;;;;1044771;28;3880;-55
2022/07/30 01:44:01;;;;;;;;;;;;;;;;;;1044696;28;1608;-54
2022/07/30 01:44:31;;;;;;;;;;;;;;;;;;1042654;28;4807;-54
2022/07/30 01:45:03;;;;;;;;;;;;;;;;;;1045971;28;3738;-56
2022/07/30 01:45:34;;;;;;;;;;;;;;;;;;1046113;28;4219;-53
2022/07/30 01:46:05;;;;;;;;;;;;;;;;;;1047293;28;1761;-57
2022/07/30 01:46:36;;;;;;;;;;;;;;;;;;1046832;28;4039;-57
2022/07/30 01:47:08;;;;;;;;;;;;;;;;;;1045377;28;3059;-57
2022/07/30 01:47:39;;;;;;;;;;;;;;;;;;1049484;28;3967;-55
2022/07/30 01:48:10;;;;;;;;;;;;;;;;;;1047185;28;1445;-56
2022/07/30 01:48:41;;;;;;;;;;;;;;;;;;1044821;28;4130;-57
2022/07/30 01:49:12;;;;;;;;;;;;;;;;;;1047834;28;3779;-53
2022/07/30 01:49:50;;;;;;;;;;;;;;;;;;1045043;28;3745;-55
2022/07/30 01:50:21;;;;;;;;;;;;;;;;;;1048124;28;3836;-56
2022/07/30 01:50:53;;;;;;;;;;;;;;;;;;1048149;28;3948;-53
2022/07/30 01:51:23;;;;;;;;;;;;;;;;;;1046922;28;4413;-58
2022/07/30 01:51:54;;;;;;;;;;;;;;;;;;1047990;28;3846;-59
2022/07/30 01:52:25;;;;;;;;;;;;;;;;;;1047599;28;4271;-56
2022/07/30 01:52:56;;;;;;;;;;;;;;;;;;1047961;28;2497;-56
2022/07/30 01:53:28;;;;;;;;;;;;;;;;;;1045867;28;3921;-56
2022/07/30 01:53:59;;;;;;;;;;;;;;;;;;1047307;28;2029;-56
2022/07/30 01:54:30;;;;;;;;;;;;;;;;;;1044731;28;3839;-56
2022/07/30 01:55:00;;;;;;;;;;;;;;;;;;1047231;28;1376;-59
2022/07/30 01:55:35;;;;;;;;;;;;;;;;;;1045832;28;3938;-55
2022/07/30 01:56:06;;;;;;;;;;;;;;;;;;1046336;28;3091;-59
2022/07/30 01:56:37;;;;;;;;;;;;;;;;;;1045587;28;4059;-58
2022/07/30 01:57:08;;;;;;;;;;;;;;;;;;1045890;28;3748;-56
2022/07/30 01:57:39;;;;;;;;;;;;;;;;;;1045214;28;3896;-56
2022/07/30 01:58:10;;;;;;;;;;;;;;;;;;1043254;28;2346;-59
2022/07/30 01:58:41;;;;;;;;;;;;;;;;;;1043352;28;4269;-59
2022/07/30 01:59:12;;;;;;;;;;;;;;;;;;1041231;28;4047;-57
2022/07/30 01:59:44;;;;;;;;;;;;;;;;;;1042521;28;4250;-57
2022/07/30 02:00:16;;;;;;;;;;;;;;;;;;1044912;28;2933;-56
2022/07/30 02:00:47;;;;;;;;;;;;;;;;;;1046468;28;3911;-58
2022/07/30 02:01:18;;;;;;;;;;;;;;;;;;1047109;28;2775;-51
2022/07/30 02:01:48;;;;;;;;;;;;;;;;;;1046746;28;3885;-57
2022/07/30 02:02:18;;;;;;;;;;;;;;;;;;1046336;28;2475;-59
2022/07/30 02:02:48;;;;;;;;;;;;;;;;;;1046752;28;3866;-54
2022/07/30 02:03:19;;;;;;;;;;;;;;;;;;1047423;28;3651;-57
2022/07/30 02:03:49;;;;;;;;;;;;;;;;;;1046173;28;4228;-54
2022/07/30 02:04:19;;;;;;;;;;;;;;;;;;1047815;28;3815;-54
2022/07/30 02:04:50;;;;;;;;;;;;;;;;;;1046646;28;3922;-58
2022/07/30 02:05:20;;;;;;;;;;;;;;;;;;1043135;28;2524;-53
2022/07/30 02:06:01;;;;;;;;;;;;;;;;;;1041274;28;4034;-57
2022/07/30 02:06:34;;;;;;;;;;;;;;;;;;1038308;28;3909;-56
2022/07/30 02:07:11;;;;;;;;;;;;;;;;;;1037012;28;3524;-56
2022/07/30 02:07:48;;;;;;;;;;;;;;;;;;1037782;28;3988;-57
2022/07/30 02:08:23;;;;;;;;;;;;;;;;;;1043429;28;3031;-54
2022/07/30 02:08:54;;;;;;;;;;;;;;;;;;1048455;28;3884;-56
2022/07/30 02:09:28;;;;;;;;;;;;;;;;;;1050153;28;5413;-58
2022/07/30 02:10:01;;;;;;;;;;;;;;;;;;1046338;28;3023;-58
2022/07/30 02:10:43;;;;;;;;;;;;;;;;;;1046284;28;4080;-56
2022/07/30 02:12:27;;;;;;;;;;;;;;;;;;1050163;28;3733;-58
2022/07/30 02:13:00;;;;;;;;;;;;;;;;;;1049113;28;3771;-59
2022/07/30 02:13:31;;;;;;;;;;;;;;;;;;1050356;28;4060;-56
2022/07/30 02:14:06;;;;;;;;;;;;;;;;;;1046466;28;3866;-56
2022/07/30 02:14:39;;;;;;;;;;;;;;;;;;1047045;28;3806;-57
2022/07/30 02:15:13;;;;;;;;;;;;;;;;;;1044542;28;3306;-56
2022/07/30 02:15:58;;;;;;;;;;;;;;;;;;1045493;28;3990;-59
2022/07/30 02:16:30;;;;;;;;;;;;;;;;;;1046937;28;3917;-56
2022/07/30 02:17:01;;;;;;;;;;;;;;;;;;1046686;28;4222;-56
2022/07/30 02:17:36;;;;;;;;;;;;;;;;;;1046049;28;4052;-56
2022/07/30 02:18:15;;;;;;;;;;;;;;;;;;1046959;28;2860;-56
2022/07/30 02:18:56;;;;;;;;;;;;;;;;;;1046465;28;4021;-56
2022/07/30 02:19:32;;;;;;;;;;;;;;;;;;1043678;28;4065;-57
2022/07/30 02:20:03;;;;;;;;;;;;;;;;;;1045343;28;2329;-59
2022/07/30 02:20:34;;;;;;;;;;;;;;;;;;1039861;28;3935;-57
2022/07/30 02:21:05;;;;;;;;;;;;;;;;;;1041446;28;2447;-53
2022/07/30 02:21:41;;;;;;;;;;;;;;;;;;1042220;28;4039;-55
2022/07/30 02:22:13;;;;;;;;;;;;;;;;;;1046368;28;3751;-56
2022/07/30 02:22:45;;;;;;;;;;;;;;;;;;1047062;28;4326;-52
2022/07/30 02:23:17;;;;;;;;;;;;;;;;;;1047174;28;2075;-55
2022/07/30 02:23:48;;;;;;;;;;;;;;;;;;1045333;28;3969;-58
2022/07/30 02:24:23;;;;;;;;;;;;;;;;;;1046483;28;4038;-54
2022/07/30 02:24:54;;;;;;;;;;;;;;;;;;1046700;28;3933;-55
2022/07/30 02:25:26;;;;;;;;;;;;;;;;;;1046027;28;4510;-57
2022/07/30 02:25:58;;;;;;;;;;;;;;;;;;1047056;28;1885;-57
2022/07/30 02:26:28;;;;;;;;;;;;;;;;;;1045555;28;3962;-60
2022/07/30 02:27:06;;;;;;;;;;;;;;;;;;1047181;28;2948;-54
2022/07/30 02:27:54;;;;;;;;;;;;;;;;;;1046831;28;4227;-59
2022/07/30 02:28:33;;;;;;;;;;;;;;;;;;1049982;28;4260;-54
2022/07/30 02:29:04;;;;;;;;;;;;;;;;;;1050041;28;3043;-56
2022/07/30 02:29:36;;;;;;;;;;;;;;;;;;1050426;28;3957;-55
2022/07/30 02:30:07;;;;;;;;;;;;;;;;;;1050226;28;2076;-57
2022/07/30 02:30:43;;;;;;;;;;;;;;;;;;1049513;28;3963;-59
2022/07/30 02:31:15;;;;;;;;;;;;;;;;;;1050531;28;3612;-56
2022/07/30 02:31:47;;;;;;;;;;;;;;;;;;1046902;28;3770;-61
2022/07/30 02:32:19;;;;;;;;;;;;;;;;;;1045329;28;2414;-54
2022/07/30 02:32:49;;;;;;;;;;;;;;;;;;1047401;28;4187;-59
2022/07/30 02:33:25;;;;;;;;;;;;;;;;;;1046052;28;2993;-56
2022/07/30 02:33:57;;;;;;;;;;;;;;;;;;1042786;28;3690;-59
2022/07/30 02:34:28;;;;;;;;;;;;;;;;;;1044158;28;3978;-55
2022/07/30 02:35:00;;;;;;;;;;;;;;;;;;1047944;28;1388;-55
2022/07/30 02:35:32;;;;;;;;;;;;;;;;;;1046062;28;4016;-54
2022/07/30 02:36:02;;;;;;;;;;;;;;;;;;1050026;28;3810;-56
2022/07/30 02:36:34;;;;;;;;;;;;;;;;;;1046590;28;3819;-55
2022/07/30 02:37:05;;;;;;;;;;;;;;;;;;1045887;28;2703;-56
2022/07/30 02:37:36;;;;;;;;;;;;;;;;;;1045528;28;4481;-57
2022/07/30 02:38:07;;;;;;;;;;;;;;;;;;1046873;28;2710;-56
2022/07/30 02:38:40;;;;;;;;;;;;;;;;;;1050568;28;3868;-60
2022/07/30 02:39:11;;;;;;;;;;;;;;;;;;1050972;28;1856;-58
2022/07/30 02:39:42;;;;;;;;;;;;;;;;;;1050303;28;4452;-57
2022/07/30 02:40:16;;;;;;;;;;;;;;;;;;1051430;28;2435;-54
2022/07/30 02:40:47;;;;;;;;;;;;;;;;;;1049331;28;4114;-57
2022/07/30 02:41:22;;;;;;;;;;;;;;;;;;1047929;28;3278;-58
2022/07/30 02:41:53;;;;;;;;;;;;;;;;;;1048907;28;3840;-57
2022/07/30 02:42:24;;;;;;;;;;;;;;;;;;1049647;28;3805;-58
2022/07/30 02:42:55;;;;;;;;;;;;;;;;;;1046170;28;3822;-53
2022/07/30 02:43:27;;;;;;;;;;;;;;;;;;1041254;28;4828;-53
2022/07/30 02:43:58;;;;;;;;;;;;;;;;;;1042449;28;2928;-51
2022/07/30 02:44:29;;;;;;;;;;;;;;;;;;1042134;28;3812;-54
2022/07/30 02:45:00;;;;;;;;;;;;;;;;;;1046089;28;2833;-57
2022/07/30 02:45:30;;;;;;;;;;;;;;;;;;1049305;28;3907;-59
2022/07/30 02:46:01;;;;;;;;;;;;;;;;;;1048139;28;1686;-55
2022/07/30 02:46:33;;;;;;;;;;;;;;;;;;1037913;28;4132;-59
2022/07/30 02:47:03;;;;;;;;;;;;;;;;;;1039163;28;4236;-54
2022/07/30 02:47:35;;;;;;;;;;;;;;;;;;1038337;28;4286;-56
2022/07/30 02:48:07;;;;;;;;;;;;;;;;;;1043474;28;2939;-54
2022/07/30 02:48:38;;;;;;;;;;;;;;;;;;1050146;28;3976;-56
2022/07/30 02:49:09;;;;;;;;;;;;;;;;;;1049699;28;3182;-57
2022/07/30 02:49:48;;;;;;;;;;;;;;;;;;1049619;28;3872;-57
2022/07/30 02:50:18;;;;;;;;;;;;;;;;;;1046408;28;4062;-59
2022/07/30 02:50:50;;;;;;;;;;;;;;;;;;1042279;28;3816;-58
2022/07/30 02:51:21;;;;;;;;;;;;;;;;;;1043337;28;3546;-58
2022/07/30 02:51:53;;;;;;;;;;;;;;;;;;1043391;28;3768;-59
2022/07/30 02:52:23;;;;;;;;;;;;;;;;;;1045861;28;4517;-60
2022/07/30 02:52:56;;;;;;;;;;;;;;;;;;1051106;28;1711;-56
2022/07/30 02:53:27;;;;;;;;;;;;;;;;;;1050238;28;3883;-55
2022/07/30 02:53:59;;;;;;;;;;;;;;;;;;1051346;28;3121;-57
2022/07/30 02:54:29;;;;;;;;;;;;;;;;;;1051249;28;4428;-54
2022/07/30 02:54:59;;;;;;;;;;;;;;;;;;1050644;28;2825;-56
2022/07/30 02:55:31;;;;;;;;;;;;;;;;;;1050380;28;4118;-57
2022/07/30 02:56:02;;;;;;;;;;;;;;;;;;1051704;28;1834;-55
2022/07/30 02:56:33;;;;;;;;;;;;;;;;;;1050321;28;3890;-60
2022/07/30 02:57:04;;;;;;;;;;;;;;;;;;1050059;28;3172;-54
2022/07/30 02:57:35;;;;;;;;;;;;;;;;;;1051264;28;4127;-54
2022/07/30 02:58:06;;;;;;;;;;;;;;;;;;1049531;28;2884;-56
2022/07/30 02:58:38;;;;;;;;;;;;;;;;;;1049654;28;4271;-57
2022/07/30 02:59:09;;;;;;;;;;;;;;;;;;1045667;28;3652;-59
2022/07/30 02:59:40;;;;;;;;;;;;;;;;;;1045971;28;3935;-57
2022/07/30 03:00:11;;;;;;;;;;;;;;;;;;1045317;28;2776;-57
2022/07/30 03:00:42;;;;;;;;;;;;;;;;;;1046531;28;3793;-58
2022/07/30 03:01:14;;;;;;;;;;;;;;;;;;1044924;28;3727;-55
2022/07/30 03:01:45;;;;;;;;;;;;;;;;;;1043228;28;3889;-52
2022/07/30 03:02:16;;;;;;;;;;;;;;;;;;1041424;28;3722;-54
2022/07/30 03:02:46;;;;;;;;;;;;;;;;;;1043350;28;3917;-54
2022/07/30 03:03:16;;;;;;;;;;;;;;;;;;1042539;28;2815;-58
2022/07/30 03:03:47;;;;;;;;;;;;;;;;;;1041974;28;3833;-53
2022/07/30 03:04:19;;;;;;;;;;;;;;;;;;1046134;28;3399;-54
2022/07/30 03:04:49;;;;;;;;;;;;;;;;;;1045982;28;3904;-57
2022/07/30 03:05:20;;;;;;;;;;;;;;;;;;1045357;28;4039;-54
2022/07/30 03:05:51;;;;;;;;;;;;;;;;;;1048906;28;3924;-58
2022/07/30 03:06:22;;;;;;;;;;;;;;;;;;1046912;28;3031;-56
2022/07/30 03:06:53;;;;;;;;;;;;;;;;;;1048822;28;3860;-57
2022/07/30 03:07:24;;;;;;;;;;;;;;;;;;1045771;28;4264;-57
2022/07/30 03:07:56;;;;;;;;;;;;;;;;;;1043047;28;2424;-54
2022/07/30 03:08:27;;;;;;;;;;;;;;;;;;1041393;28;3973;-55
2022/07/30 03:08:58;;;;;;;;;;;;;;;;;;1043899;28;3888;-58
2022/07/30 03:09:37;;;;;;;;;;;;;;;;;;1047719;28;3962;-60
2022/07/30 03:10:08;;;;;;;;;;;;;;;;;;1050781;28;3604;-54
2022/07/30 03:10:39;;;;;;;;;;;;;;;;;;1050621;28;3946;-56
2022/07/30 03:11:10;;;;;;;;;;;;;;;;;;1051139;28;2947;-56
2022/07/30 03:11:41;;;;;;;;;;;;;;;;;;1049510;28;3792;-55
2022/07/30 03:12:11;;;;;;;;;;;;;;;;;;1051184;28;3242;-55
2022/07/30 03:12:44;;;;;;;;;;;;;;;;;;1046499;28;4272;-58
2022/07/30 03:13:15;;;;;;;;;;;;;;;;;;1043758;28;2314;-52
2022/07/30 03:13:45;;;;;;;;;;;;;;;;;;1042379;28;4024;-54
2022/07/30 03:14:16;;;;;;;;;;;;;;;;;;1044928;28;1926;-55
2022/07/30 03:14:46;;;;;;;;;;;;;;;;;;1046483;28;3801;-57
2022/07/30 03:15:16;;;;;;;;;;;;;;;;;;1051411;28;3844;-58
2022/07/30 03:15:47;;;;;;;;;;;;;;;;;;1051229;28;3800;-58
2022/07/30 03:16:21;;;;;;;;;;;;;;;;;;1047948;28;3738;-53
2022/07/30 03:16:54;;;;;;;;;;;;;;;;;;1047104;28;3890;-55
2022/07/30 03:17:25;;;;;;;;;;;;;;;;;;1046456;28;3873;-56
2022/07/30 03:17:57;;;;;;;;;;;;;;;;;;1049154;28;3461;-57
2022/07/30 03:18:30;;;;;;;;;;;;;;;;;;1049561;28;3918;-57
2022/07/30 03:19:02;;;;;;;;;;;;;;;;;;1052642;28;1898;-59
2022/07/30 03:19:35;;;;;;;;;;;;;;;;;;1047941;28;3993;-55
2022/07/30 03:20:07;;;;;;;;;;;;;;;;;;1043861;28;3890;-56
2022/07/30 03:20:37;;;;;;;;;;;;;;;;;;1047941;28;3904;-59
2022/07/30 03:21:09;;;;;;;;;;;;;;;;;;1048164;28;1994;-61
2022/07/30 03:21:40;;;;;;;;;;;;;;;;;;1050828;28;4210;-58
2022/07/30 03:22:11;;;;;;;;;;;;;;;;;;1051285;28;2958;-57
2022/07/30 03:22:44;;;;;;;;;;;;;;;;;;1051773;28;3940;-56
2022/07/30 03:23:15;;;;;;;;;;;;;;;;;;1047506;28;3050;-55
2022/07/30 03:23:46;;;;;;;;;;;;;;;;;;1047513;28;3898;-54
2022/07/30 03:24:17;;;;;;;;;;;;;;;;;;1040895;28;2100;-57
2022/07/30 03:24:48;;;;;;;;;;;;;;;;;;1039669;28;4027;-60
2022/07/30 03:25:23;;;;;;;;;;;;;;;;;;1042992;28;3923;-54
2022/07/30 03:25:57;;;;;;;;;;;;;;;;;;1045628;28;3922;-56
2022/07/30 03:26:27;;;;;;;;;;;;;;;;;;1048518;28;4457;-58
2022/07/30 03:26:59;;;;;;;;;;;;;;;;;;1051813;28;2210;-59
2022/07/30 03:27:30;;;;;;;;;;;;;;;;;;1051181;28;4093;-56
2022/07/30 03:28:14;;;;;;;;;;;;;;;;;;1049484;28;3676;-56
2022/07/30 03:28:52;;;;;;;;;;;;;;;;;;1051548;28;4303;-55
2022/07/30 03:29:25;;;;;;;;;;;;;;;;;;1046461;28;2595;-57
2022/07/30 03:29:55;;;;;;;;;;;;;;;;;;1046651;28;3999;-60
2022/07/30 03:30:27;;;;;;;;;;;;;;;;;;1042782;28;4125;-58
2022/07/30 03:30:57;;;;;;;;;;;;;;;;;;1048142;28;5879;-58
2022/07/30 03:31:28;;;;;;;;;;;;;;;;;;1049876;28;4009;-57
2022/07/30 03:31:59;;;;;;;;;;;;;;;;;;1051134;28;3780;-55
2022/07/30 03:32:30;;;;;;;;;;;;;;;;;;1046957;28;3827;-58
2022/07/30 03:33:00;;;;;;;;;;;;;;;;;;1047540;28;4091;-53
2022/07/30 03:33:31;;;;;;;;;;;;;;;;;;1043062;28;4027;-56
2022/07/30 03:34:02;;;;;;;;;;;;;;;;;;1044085;28;3812;-57
2022/07/30 03:34:33;;;;;;;;;;;;;;;;;;1045673;28;3794;-56
2022/07/30 03:35:05;;;;;;;;;;;;;;;;;;1044446;28;3869;-58
2022/07/30 03:35:36;;;;;;;;;;;;;;;;;;1049060;28;3826;-58
2022/07/30 03:36:07;;;;;;;;;;;;;;;;;;1049479;28;2349;-57
2022/07/30 03:36:38;;;;;;;;;;;;;;;;;;1051255;28;3967;-58
2022/07/30 03:37:09;;;;;;;;;;;;;;;;;;1051832;28;3273;-56
2022/07/30 03:37:40;;;;;;;;;;;;;;;;;;1046423;28;3908;-52
2022/07/30 03:38:12;;;;;;;;;;;;;;;;;;1046742;28;2462;-56
2022/07/30 03:38:42;;;;;;;;;;;;;;;;;;1045553;28;3904;-53
2022/07/30 03:39:13;;;;;;;;;;;;;;;;;;1046966;28;3244;-56
2022/07/30 03:39:44;;;;;;;;;;;;;;;;;;1049927;28;3924;-55
2022/07/30 03:40:14;;;;;;;;;;;;;;;;;;1047338;28;2906;-54
2022/07/30 03:40:45;;;;;;;;;;;;;;;;;;1045617;28;3924;-56
2022/07/30 03:41:16;;;;;;;;;;;;;;;;;;1045913;28;3922;-58
2022/07/30 03:41:46;;;;;;;;;;;;;;;;;;1045777;28;3931;-58
2022/07/30 03:42:17;;;;;;;;;;;;;;;;;;1051851;27;3145;-56
2022/07/30 03:42:47;;;;;;;;;;;;;;;;;;1051017;28;4299;-55
2022/07/30 03:43:18;;;;;;;;;;;;;;;;;;1052307;28;2187;-54